sensor_id;sensor_type;location;lat;lon;timestamp;temperature;humidity
53752;DHT22;41095;53.090;6.692;2023-08-30T00:00:19;13.90;99.90
53752;DHT22;41095;53.090;6.692;2023-08-30T00:02:47;13.90;99.90
53752;DHT22;41095;53.090;6.692;2023-08-30T00:05:13;13.80;99.90
53752;DHT22;41095;53.090;6.692;2023-08-30T00:07:39;13.80;99.90
53752;DHT22;41095;53.090;6.692;2023-08-30T00:10:06;13.80;99.90
53752;DHT22;41095;53.090;6.692;2023-08-30T00:12:32;13.70;99.90
53752;DHT22;41095;53.090;6.692;2023-08-30T00:14:58;13.60;99.90
53752;DHT22;41095;53.090;6.692;2023-08-30T00:17:24;13.60;99.90
53752;DHT22;41095;53.090;6.692;2023-08-30T00:19:50;13.60;99.90
53752;DHT22;41095;53.090;6.692;2023-08-30T00:22:16;13.60;99.90
53752;DHT22;41095;53.090;6.692;2023-08-30T00:24:42;13.50;99.90
53752;DHT22;41095;53.090;6.692;2023-08-30T00:27:07;13.50;99.90
53752;DHT22;41095;53.090;6.692;2023-08-30T00:29:33;13.50;99.90
53752;DHT22;41095;53.090;6.692;2023-08-30T00:31:59;13.50;99.90
53752;DHT22;41095;53.090;6.692;2023-08-30T00:34:25;13.50;99.90
53752;DHT22;41095;53.090;6.692;2023-08-30T00:36:51;13.50;99.90
53752;DHT22;41095;53.090;6.692;2023-08-30T00:39:17;13.40;99.90
53752;DHT22;41095;53.090;6.692;2023-08-30T00:41:42;13.40;99.90
53752;DHT22;41095;53.090;6.692;2023-08-30T00:44:08;13.40;99.90
53752;DHT22;41095;53.090;6.692;2023-08-30T00:46:34;13.40;99.90
53752;DHT22;41095;53.090;6.692;2023-08-30T00:49:00;13.30;99.90
53752;DHT22;41095;53.090;6.692;2023-08-30T00:51:26;13.30;99.90
53752;DHT22;41095;53.090;6.692;2023-08-30T00:53:54;13.30;99.90
53752;DHT22;41095;53.090;6.692;2023-08-30T00:56:21;13.30;99.90
53752;DHT22;41095;53.090;6.692;2023-08-30T00:58:48;13.30;99.90
53752;DHT22;41095;53.090;6.692;2023-08-30T01:01:15;13.30;99.90
53752;DHT22;41095;53.090;6.692;2023-08-30T01:03:41;13.30;99.90
53752;DHT22;41095;53.090;6.692;2023-08-30T01:06:07;13.30;99.90
53752;DHT22;41095;53.090;6.692;2023-08-30T01:08:34;13.30;99.90
53752;DHT22;41095;53.090;6.692;2023-08-30T01:13:34;13.30;99.90
53752;DHT22;41095;53.090;6.692;2023-08-30T01:16:01;13.30;99.90
53752;DHT22;41095;53.090;6.692;2023-08-30T01:18:32;13.30;99.90
53752;DHT22;41095;53.090;6.692;2023-08-30T01:21:01;13.30;99.90
53752;DHT22;41095;53.090;6.692;2023-08-30T01:23:42;13.30;99.90
53752;DHT22;41095;53.090;6.692;2023-08-30T01:29:06;13.30;99.90
53752;DHT22;41095;53.090;6.692;2023-08-30T01:31:34;13.20;99.90
53752;DHT22;41095;53.090;6.692;2023-08-30T01:34:03;13.20;99.90
53752;DHT22;41095;53.090;6.692;2023-08-30T01:36:30;13.10;99.90
53752;DHT22;41095;53.090;6.692;2023-08-30T01:38:58;13.10;99.90
53752;DHT22;41095;53.090;6.692;2023-08-30T01:41:26;13.10;99.90
53752;DHT22;41095;53.090;6.692;2023-08-30T01:43:53;13.10;99.90
53752;DHT22;41095;53.090;6.692;2023-08-30T01:46:20;13.10;99.90
53752;DHT22;41095;53.090;6.692;2023-08-30T01:48:47;13.10;99.90
53752;DHT22;41095;53.090;6.692;2023-08-30T01:51:17;13.10;99.90
53752;DHT22;41095;53.090;6.692;2023-08-30T01:53:45;13.10;99.90
53752;DHT22;41095;53.090;6.692;2023-08-30T01:56:11;13.10;99.90
53752;DHT22;41095;53.090;6.692;2023-08-30T01:58:37;13.20;99.90
53752;DHT22;41095;53.090;6.692;2023-08-30T02:01:02;13.20;99.90
53752;DHT22;41095;53.090;6.692;2023-08-30T02:03:28;13.20;99.90
53752;DHT22;41095;53.090;6.692;2023-08-30T02:06:13;13.20;99.90
53752;DHT22;41095;53.090;6.692;2023-08-30T02:09:35;13.20;99.90
53752;DHT22;41095;53.090;6.692;2023-08-30T02:11:44;13.20;99.90
53752;DHT22;41095;53.090;6.692;2023-08-30T02:14:11;13.20;99.90
53752;DHT22;41095;53.090;6.692;2023-08-30T02:16:42;13.10;99.90
53752;DHT22;41095;53.090;6.692;2023-08-30T02:19:08;13.10;99.90
53752;DHT22;41095;53.090;6.692;2023-08-30T02:21:34;13.10;99.90
53752;DHT22;41095;53.090;6.692;2023-08-30T02:23:59;13.00;99.90
53752;DHT22;41095;53.090;6.692;2023-08-30T02:26:25;13.00;99.90
53752;DHT22;41095;53.090;6.692;2023-08-30T02:28:51;12.90;99.90
53752;DHT22;41095;53.090;6.692;2023-08-30T02:31:16;12.90;99.90
53752;DHT22;41095;53.090;6.692;2023-08-30T02:33:42;12.90;99.90
53752;DHT22;41095;53.090;6.692;2023-08-30T02:36:08;12.80;99.90
53752;DHT22;41095;53.090;6.692;2023-08-30T02:38:34;12.80;99.90
53752;DHT22;41095;53.090;6.692;2023-08-30T02:40:59;12.70;99.90
53752;DHT22;41095;53.090;6.692;2023-08-30T02:43:25;12.70;99.90
53752;DHT22;41095;53.090;6.692;2023-08-30T02:45:50;12.60;99.90
53752;DHT22;41095;53.090;6.692;2023-08-30T02:48:18;12.60;99.90
53752;DHT22;41095;53.090;6.692;2023-08-30T02:50:43;12.50;99.90
53752;DHT22;41095;53.090;6.692;2023-08-30T02:53:09;12.50;99.90
53752;DHT22;41095;53.090;6.692;2023-08-30T02:55:35;12.50;99.90
53752;DHT22;41095;53.090;6.692;2023-08-30T02:58:01;12.50;99.90
53752;DHT22;41095;53.090;6.692;2023-08-30T03:00:27;12.50;99.90
53752;DHT22;41095;53.090;6.692;2023-08-30T03:02:52;12.40;99.90
53752;DHT22;41095;53.090;6.692;2023-08-30T03:05:18;12.40;99.90
53752;DHT22;41095;53.090;6.692;2023-08-30T03:07:44;12.40;99.90
53752;DHT22;41095;53.090;6.692;2023-08-30T03:10:10;12.40;99.90
53752;DHT22;41095;53.090;6.692;2023-08-30T03:12:36;12.40;99.90
53752;DHT22;41095;53.090;6.692;2023-08-30T03:15:02;12.40;99.90
53752;DHT22;41095;53.090;6.692;2023-08-30T03:17:29;12.40;99.90
53752;DHT22;41095;53.090;6.692;2023-08-30T03:19:55;12.40;99.90
53752;DHT22;41095;53.090;6.692;2023-08-30T03:22:21;12.50;99.90
53752;DHT22;41095;53.090;6.692;2023-08-30T03:24:47;12.50;99.90
53752;DHT22;41095;53.090;6.692;2023-08-30T03:27:12;12.50;99.90
53752;DHT22;41095;53.090;6.692;2023-08-30T03:29:38;12.50;99.90
53752;DHT22;41095;53.090;6.692;2023-08-30T03:32:04;12.60;99.90
53752;DHT22;41095;53.090;6.692;2023-08-30T03:34:30;12.60;99.90
53752;DHT22;41095;53.090;6.692;2023-08-30T03:36:55;12.60;99.90
53752;DHT22;41095;53.090;6.692;2023-08-30T03:39:21;12.60;99.90
53752;DHT22;41095;53.090;6.692;2023-08-30T03:41:48;12.60;99.90
53752;DHT22;41095;53.090;6.692;2023-08-30T03:44:13;12.60;99.90
53752;DHT22;41095;53.090;6.692;2023-08-30T03:46:39;12.50;99.90
53752;DHT22;41095;53.090;6.692;2023-08-30T03:49:04;12.50;99.90
53752;DHT22;41095;53.090;6.692;2023-08-30T03:51:30;12.50;99.90
53752;DHT22;41095;53.090;6.692;2023-08-30T03:53:56;12.50;99.90
53752;DHT22;41095;53.090;6.692;2023-08-30T03:56:22;12.50;99.90
53752;DHT22;41095;53.090;6.692;2023-08-30T03:58:48;12.40;99.90
53752;DHT22;41095;53.090;6.692;2023-08-30T04:01:14;12.40;99.90
53752;DHT22;41095;53.090;6.692;2023-08-30T04:03:40;12.40;99.90
53752;DHT22;41095;53.090;6.692;2023-08-30T04:06:05;12.30;99.90
53752;DHT22;41095;53.090;6.692;2023-08-30T04:08:31;12.30;99.90
53752;DHT22;41095;53.090;6.692;2023-08-30T04:10:57;12.30;99.90
53752;DHT22;41095;53.090;6.692;2023-08-30T04:13:23;12.20;99.90
53752;DHT22;41095;53.090;6.692;2023-08-30T04:15:48;12.20;99.90
53752;DHT22;41095;53.090;6.692;2023-08-30T04:18:14;12.20;99.90
53752;DHT22;41095;53.090;6.692;2023-08-30T04:20:44;12.20;99.90
53752;DHT22;41095;53.090;6.692;2023-08-30T04:23:11;12.10;99.90
53752;DHT22;41095;53.090;6.692;2023-08-30T04:25:36;12.10;99.90
53752;DHT22;41095;53.090;6.692;2023-08-30T04:28:02;12.10;99.90
53752;DHT22;41095;53.090;6.692;2023-08-30T04:30:28;12.10;99.90
53752;DHT22;41095;53.090;6.692;2023-08-30T04:32:53;12.00;99.90
53752;DHT22;41095;53.090;6.692;2023-08-30T04:35:20;12.00;99.90
53752;DHT22;41095;53.090;6.692;2023-08-30T04:37:46;12.00;99.90
53752;DHT22;41095;53.090;6.692;2023-08-30T04:40:11;12.00;99.90
53752;DHT22;41095;53.090;6.692;2023-08-30T04:42:37;12.00;99.90
53752;DHT22;41095;53.090;6.692;2023-08-30T04:45:05;12.00;99.90
53752;DHT22;41095;53.090;6.692;2023-08-30T04:47:32;12.00;99.90
53752;DHT22;41095;53.090;6.692;2023-08-30T04:49:58;12.00;99.90
53752;DHT22;41095;53.090;6.692;2023-08-30T04:52:24;12.10;99.90
53752;DHT22;41095;53.090;6.692;2023-08-30T04:54:49;12.10;99.90
53752;DHT22;41095;53.090;6.692;2023-08-30T04:57:15;12.10;99.90
53752;DHT22;41095;53.090;6.692;2023-08-30T04:59:45;12.10;99.90
53752;DHT22;41095;53.090;6.692;2023-08-30T05:02:11;12.10;99.90
53752;DHT22;41095;53.090;6.692;2023-08-30T05:04:37;12.10;99.90
53752;DHT22;41095;53.090;6.692;2023-08-30T05:07:03;12.10;99.90
53752;DHT22;41095;53.090;6.692;2023-08-30T05:09:33;12.20;99.90
53752;DHT22;41095;53.090;6.692;2023-08-30T05:12:00;12.20;99.90
53752;DHT22;41095;53.090;6.692;2023-08-30T05:14:26;12.20;99.90
53752;DHT22;41095;53.090;6.692;2023-08-30T05:16:52;12.20;99.90
53752;DHT22;41095;53.090;6.692;2023-08-30T05:19:18;12.20;99.90
53752;DHT22;41095;53.090;6.692;2023-08-30T05:21:44;12.30;99.90
53752;DHT22;41095;53.090;6.692;2023-08-30T05:24:09;12.30;99.90
53752;DHT22;41095;53.090;6.692;2023-08-30T05:26:36;12.40;99.90
53752;DHT22;41095;53.090;6.692;2023-08-30T05:29:02;12.40;99.90
53752;DHT22;41095;53.090;6.692;2023-08-30T05:31:28;12.50;99.90
53752;DHT22;41095;53.090;6.692;2023-08-30T05:33:53;12.50;99.90
53752;DHT22;41095;53.090;6.692;2023-08-30T05:36:19;12.60;99.90
53752;DHT22;41095;53.090;6.692;2023-08-30T05:38:45;12.60;99.90
53752;DHT22;41095;53.090;6.692;2023-08-30T05:41:10;12.60;99.90
53752;DHT22;41095;53.090;6.692;2023-08-30T05:43:36;12.70;99.90
53752;DHT22;41095;53.090;6.692;2023-08-30T05:46:02;12.70;99.90
53752;DHT22;41095;53.090;6.692;2023-08-30T05:48:29;12.70;99.90
53752;DHT22;41095;53.090;6.692;2023-08-30T05:50:55;12.80;99.90
53752;DHT22;41095;53.090;6.692;2023-08-30T05:53:20;12.90;99.90
53752;DHT22;41095;53.090;6.692;2023-08-30T05:55:46;13.00;99.90
53752;DHT22;41095;53.090;6.692;2023-08-30T05:58:12;13.10;99.90
53752;DHT22;41095;53.090;6.692;2023-08-30T06:00:39;13.10;99.90
53752;DHT22;41095;53.090;6.692;2023-08-30T06:03:05;13.20;99.90
53752;DHT22;41095;53.090;6.692;2023-08-30T06:05:30;13.30;99.90
53752;DHT22;41095;53.090;6.692;2023-08-30T06:07:56;13.30;99.90
53752;DHT22;41095;53.090;6.692;2023-08-30T06:10:23;13.30;99.90
53752;DHT22;41095;53.090;6.692;2023-08-30T06:12:49;13.40;99.90
53752;DHT22;41095;53.090;6.692;2023-08-30T06:15:14;13.40;99.90
53752;DHT22;41095;53.090;6.692;2023-08-30T06:17:40;13.50;99.90
53752;DHT22;41095;53.090;6.692;2023-08-30T06:20:06;13.50;99.90
53752;DHT22;41095;53.090;6.692;2023-08-30T06:22:32;13.60;99.90
53752;DHT22;41095;53.090;6.692;2023-08-30T06:24:58;13.70;99.90
53752;DHT22;41095;53.090;6.692;2023-08-30T06:27:24;13.70;99.90
53752;DHT22;41095;53.090;6.692;2023-08-30T06:29:49;13.80;99.90
53752;DHT22;41095;53.090;6.692;2023-08-30T06:32:16;13.90;99.90
53752;DHT22;41095;53.090;6.692;2023-08-30T06:34:42;14.00;99.90
53752;DHT22;41095;53.090;6.692;2023-08-30T06:37:08;14.00;99.90
53752;DHT22;41095;53.090;6.692;2023-08-30T06:39:34;14.10;99.90
53752;DHT22;41095;53.090;6.692;2023-08-30T06:42:04;14.30;99.90
53752;DHT22;41095;53.090;6.692;2023-08-30T06:44:30;13.90;99.90
53752;DHT22;41095;53.090;6.692;2023-08-30T06:46:59;14.60;99.90
53752;DHT22;41095;53.090;6.692;2023-08-30T06:49:24;14.70;99.90
53752;DHT22;41095;53.090;6.692;2023-08-30T06:51:50;14.90;99.90
53752;DHT22;41095;53.090;6.692;2023-08-30T06:54:16;15.00;99.90
53752;DHT22;41095;53.090;6.692;2023-08-30T06:56:47;15.00;99.90
53752;DHT22;41095;53.090;6.692;2023-08-30T06:59:21;15.10;99.90
53752;DHT22;41095;53.090;6.692;2023-08-30T07:01:47;15.20;99.90
53752;DHT22;41095;53.090;6.692;2023-08-30T07:04:13;15.10;99.90
53752;DHT22;41095;53.090;6.692;2023-08-30T07:06:38;15.10;99.90
53752;DHT22;41095;53.090;6.692;2023-08-30T07:09:04;15.20;99.90
53752;DHT22;41095;53.090;6.692;2023-08-30T07:11:31;15.10;99.90
53752;DHT22;41095;53.090;6.692;2023-08-30T07:13:57;15.10;99.90
53752;DHT22;41095;53.090;6.692;2023-08-30T07:16:23;15.10;99.90
53752;DHT22;41095;53.090;6.692;2023-08-30T07:18:49;15.20;99.90
53752;DHT22;41095;53.090;6.692;2023-08-30T07:21:15;15.20;99.90
53752;DHT22;41095;53.090;6.692;2023-08-30T07:23:41;15.20;99.90
53752;DHT22;41095;53.090;6.692;2023-08-30T07:26:06;15.30;99.90
53752;DHT22;41095;53.090;6.692;2023-08-30T07:28:32;15.40;99.90
53752;DHT22;41095;53.090;6.692;2023-08-30T07:31:02;15.50;99.90
53752;DHT22;41095;53.090;6.692;2023-08-30T07:33:29;15.50;99.90
53752;DHT22;41095;53.090;6.692;2023-08-30T07:35:54;15.50;99.90
53752;DHT22;41095;53.090;6.692;2023-08-30T07:38:20;15.50;99.90
53752;DHT22;41095;53.090;6.692;2023-08-30T07:40:45;15.60;99.90
53752;DHT22;41095;53.090;6.692;2023-08-30T07:43:11;15.60;99.90
53752;DHT22;41095;53.090;6.692;2023-08-30T07:45:37;15.70;99.90
53752;DHT22;41095;53.090;6.692;2023-08-30T07:48:03;15.80;99.90
53752;DHT22;41095;53.090;6.692;2023-08-30T07:50:28;15.90;99.90
53752;DHT22;41095;53.090;6.692;2023-08-30T07:52:54;16.10;99.90
53752;DHT22;41095;53.090;6.692;2023-08-30T07:55:20;16.10;99.90
53752;DHT22;41095;53.090;6.692;2023-08-30T07:57:45;16.30;99.90
53752;DHT22;41095;53.090;6.692;2023-08-30T08:00:12;16.40;99.90
53752;DHT22;41095;53.090;6.692;2023-08-30T08:02:38;16.50;99.90
53752;DHT22;41095;53.090;6.692;2023-08-30T08:05:04;16.60;99.90
53752;DHT22;41095;53.090;6.692;2023-08-30T08:07:30;16.60;99.90
53752;DHT22;41095;53.090;6.692;2023-08-30T08:09:57;16.60;99.90
53752;DHT22;41095;53.090;6.692;2023-08-30T08:12:22;16.70;99.90
53752;DHT22;41095;53.090;6.692;2023-08-30T08:14:48;16.70;99.90
53752;DHT22;41095;53.090;6.692;2023-08-30T08:17:14;16.70;99.90
53752;DHT22;41095;53.090;6.692;2023-08-30T08:19:40;16.80;99.90
53752;DHT22;41095;53.090;6.692;2023-08-30T08:22:08;17.00;99.90
53752;DHT22;41095;53.090;6.692;2023-08-30T08:24:33;17.30;99.90
53752;DHT22;41095;53.090;6.692;2023-08-30T08:26:59;17.60;99.90
53752;DHT22;41095;53.090;6.692;2023-08-30T08:29:27;17.80;99.90
53752;DHT22;41095;53.090;6.692;2023-08-30T08:31:53;17.90;99.90
53752;DHT22;41095;53.090;6.692;2023-08-30T08:34:19;17.80;99.90
53752;DHT22;41095;53.090;6.692;2023-08-30T08:36:45;17.70;99.90
53752;DHT22;41095;53.090;6.692;2023-08-30T08:39:10;17.70;99.90
53752;DHT22;41095;53.090;6.692;2023-08-30T08:41:41;17.70;99.90
53752;DHT22;41095;53.090;6.692;2023-08-30T08:44:07;17.60;99.90
53752;DHT22;41095;53.090;6.692;2023-08-30T08:46:35;17.70;99.90
53752;DHT22;41095;53.090;6.692;2023-08-30T08:49:08;17.70;99.90
53752;DHT22;41095;53.090;6.692;2023-08-30T08:51:35;17.70;99.90
53752;DHT22;41095;53.090;6.692;2023-08-30T08:54:03;17.70;99.90
53752;DHT22;41095;53.090;6.692;2023-08-30T08:56:31;17.70;99.90
53752;DHT22;41095;53.090;6.692;2023-08-30T08:58:58;17.80;99.90
53752;DHT22;41095;53.090;6.692;2023-08-30T09:01:25;17.90;99.90
53752;DHT22;41095;53.090;6.692;2023-08-30T09:03:51;18.00;99.90
53752;DHT22;41095;53.090;6.692;2023-08-30T09:06:18;18.10;99.90
53752;DHT22;41095;53.090;6.692;2023-08-30T09:08:43;18.10;99.90
53752;DHT22;41095;53.090;6.692;2023-08-30T09:11:09;18.20;99.90
53752;DHT22;41095;53.090;6.692;2023-08-30T09:13:35;18.20;99.90
53752;DHT22;41095;53.090;6.692;2023-08-30T09:16:01;18.30;99.90
53752;DHT22;41095;53.090;6.692;2023-08-30T09:18:28;18.20;99.90
53752;DHT22;41095;53.090;6.692;2023-08-30T09:21:08;18.20;99.90
53752;DHT22;41095;53.090;6.692;2023-08-30T09:23:34;18.10;99.90
53752;DHT22;41095;53.090;6.692;2023-08-30T09:26:00;18.00;99.90
53752;DHT22;41095;53.090;6.692;2023-08-30T09:28:26;17.90;99.90
53752;DHT22;41095;53.090;6.692;2023-08-30T09:30:52;17.80;99.90
53752;DHT22;41095;53.090;6.692;2023-08-30T09:33:44;17.80;99.90
53752;DHT22;41095;53.090;6.692;2023-08-30T09:36:10;17.70;99.90
53752;DHT22;41095;53.090;6.692;2023-08-30T09:38:36;17.70;99.90
53752;DHT22;41095;53.090;6.692;2023-08-30T09:41:03;17.60;99.90
53752;DHT22;41095;53.090;6.692;2023-08-30T09:43:30;17.60;99.90
53752;DHT22;41095;53.090;6.692;2023-08-30T09:45:55;17.40;99.90
53752;DHT22;41095;53.090;6.692;2023-08-30T09:48:27;17.30;99.90
53752;DHT22;41095;53.090;6.692;2023-08-30T09:50:53;17.20;99.90
53752;DHT22;41095;53.090;6.692;2023-08-30T09:53:21;17.10;99.90
53752;DHT22;41095;53.090;6.692;2023-08-30T09:55:52;17.00;99.90
53752;DHT22;41095;53.090;6.692;2023-08-30T09:58:18;16.90;99.90
53752;DHT22;41095;53.090;6.692;2023-08-30T10:00:45;16.70;99.90
53752;DHT22;41095;53.090;6.692;2023-08-30T10:03:11;16.60;99.90
53752;DHT22;41095;53.090;6.692;2023-08-30T10:05:39;16.40;99.90
53752;DHT22;41095;53.090;6.692;2023-08-30T10:08:07;16.30;99.90
53752;DHT22;41095;53.090;6.692;2023-08-30T10:10:34;16.30;99.90
53752;DHT22;41095;53.090;6.692;2023-08-30T10:13:01;16.30;99.90
53752;DHT22;41095;53.090;6.692;2023-08-30T10:15:27;16.30;99.90
53752;DHT22;41095;53.090;6.692;2023-08-30T10:17:58;16.40;99.90
53752;DHT22;41095;53.090;6.692;2023-08-30T10:20:24;16.80;99.90
53752;DHT22;41095;53.090;6.692;2023-08-30T10:22:52;17.20;99.90
53752;DHT22;41095;53.090;6.692;2023-08-30T10:25:27;17.60;99.90
53752;DHT22;41095;53.090;6.692;2023-08-30T10:27:55;18.20;99.90
53752;DHT22;41095;53.090;6.692;2023-08-30T10:30:23;18.90;99.90
53752;DHT22;41095;53.090;6.692;2023-08-30T10:32:49;19.40;99.90
53752;DHT22;41095;53.090;6.692;2023-08-30T10:35:17;19.50;99.90
53752;DHT22;41095;53.090;6.692;2023-08-30T10:37:54;19.40;99.90
53752;DHT22;41095;53.090;6.692;2023-08-30T10:40:20;19.10;99.90
53752;DHT22;41095;53.090;6.692;2023-08-30T10:42:58;18.90;99.90
53752;DHT22;41095;53.090;6.692;2023-08-30T10:45:24;18.70;99.90
53752;DHT22;41095;53.090;6.692;2023-08-30T10:47:55;18.60;99.90
53752;DHT22;41095;53.090;6.692;2023-08-30T10:50:31;18.60;99.90
53752;DHT22;41095;53.090;6.692;2023-08-30T10:52:57;18.50;99.90
53752;DHT22;41095;53.090;6.692;2023-08-30T10:55:23;18.60;99.90
53752;DHT22;41095;53.090;6.692;2023-08-30T10:57:59;18.60;99.90
53752;DHT22;41095;53.090;6.692;2023-08-30T11:00:27;18.60;99.90
53752;DHT22;41095;53.090;6.692;2023-08-30T11:02:53;18.70;99.90
53752;DHT22;41095;53.090;6.692;2023-08-30T11:05:22;18.70;99.90
53752;DHT22;41095;53.090;6.692;2023-08-30T11:07:51;18.70;99.90
53752;DHT22;41095;53.090;6.692;2023-08-30T11:10:18;18.70;99.90
53752;DHT22;41095;53.090;6.692;2023-08-30T11:12:45;18.90;99.90
53752;DHT22;41095;53.090;6.692;2023-08-30T11:15:12;19.00;99.90
53752;DHT22;41095;53.090;6.692;2023-08-30T11:17:42;19.00;99.90
53752;DHT22;41095;53.090;6.692;2023-08-30T11:22:39;18.70;99.90
53752;DHT22;41095;53.090;6.692;2023-08-30T11:25:08;18.60;99.90
53752;DHT22;41095;53.090;6.692;2023-08-30T11:27:34;18.50;99.90
53752;DHT22;41095;53.090;6.692;2023-08-30T11:30:00;18.30;99.90
53752;DHT22;41095;53.090;6.692;2023-08-30T11:32:39;18.20;99.90
53752;DHT22;41095;53.090;6.692;2023-08-30T11:35:05;18.00;99.90
53752;DHT22;41095;53.090;6.692;2023-08-30T11:37:32;17.90;99.90
53752;DHT22;41095;53.090;6.692;2023-08-30T11:40:00;17.80;99.90
53752;DHT22;41095;53.090;6.692;2023-08-30T11:42:26;17.70;99.90
53752;DHT22;41095;53.090;6.692;2023-08-30T11:44:52;17.70;99.90
53752;DHT22;41095;53.090;6.692;2023-08-30T11:47:19;17.60;99.90
53752;DHT22;41095;53.090;6.692;2023-08-30T11:49:47;17.50;99.90
53752;DHT22;41095;53.090;6.692;2023-08-30T11:52:14;17.40;99.90
53752;DHT22;41095;53.090;6.692;2023-08-30T11:54:40;17.30;99.90
53752;DHT22;41095;53.090;6.692;2023-08-30T11:57:06;17.30;99.90
53752;DHT22;41095;53.090;6.692;2023-08-30T11:59:34;17.20;99.90
53752;DHT22;41095;53.090;6.692;2023-08-30T12:02:02;17.10;99.90
53752;DHT22;41095;53.090;6.692;2023-08-30T12:04:29;17.00;99.90
53752;DHT22;41095;53.090;6.692;2023-08-30T12:06:56;16.90;99.90
53752;DHT22;41095;53.090;6.692;2023-08-30T12:09:22;16.80;99.90
53752;DHT22;41095;53.090;6.692;2023-08-30T12:11:49;16.80;99.90
53752;DHT22;41095;53.090;6.692;2023-08-30T12:14:14;16.70;99.90
53752;DHT22;41095;53.090;6.692;2023-08-30T12:16:41;16.70;99.90
53752;DHT22;41095;53.090;6.692;2023-08-30T12:19:10;16.60;99.90
53752;DHT22;41095;53.090;6.692;2023-08-30T12:21:40;16.60;99.90
53752;DHT22;41095;53.090;6.692;2023-08-30T12:24:07;16.60;99.90
53752;DHT22;41095;53.090;6.692;2023-08-30T12:26:33;16.60;99.90
53752;DHT22;41095;53.090;6.692;2023-08-30T12:28:58;16.60;99.90
53752;DHT22;41095;53.090;6.692;2023-08-30T12:31:24;16.50;99.90
53752;DHT22;41095;53.090;6.692;2023-08-30T12:33:50;16.50;99.90
53752;DHT22;41095;53.090;6.692;2023-08-30T12:36:15;16.60;99.90
53752;DHT22;41095;53.090;6.692;2023-08-30T12:38:41;16.60;99.90
53752;DHT22;41095;53.090;6.692;2023-08-30T12:41:07;16.70;99.90
53752;DHT22;41095;53.090;6.692;2023-08-30T12:43:32;16.60;99.90
53752;DHT22;41095;53.090;6.692;2023-08-30T12:45:58;16.60;99.90
53752;DHT22;41095;53.090;6.692;2023-08-30T12:48:24;16.60;99.90
53752;DHT22;41095;53.090;6.692;2023-08-30T12:50:50;16.60;99.90
53752;DHT22;41095;53.090;6.692;2023-08-30T12:53:15;16.60;99.90
53752;DHT22;41095;53.090;6.692;2023-08-30T12:55:44;16.70;99.90
53752;DHT22;41095;53.090;6.692;2023-08-30T12:58:10;16.80;99.90
53752;DHT22;41095;53.090;6.692;2023-08-30T13:00:37;16.80;99.90
53752;DHT22;41095;53.090;6.692;2023-08-30T13:03:03;16.90;99.90
53752;DHT22;41095;53.090;6.692;2023-08-30T13:05:29;16.90;99.90
53752;DHT22;41095;53.090;6.692;2023-08-30T13:07:56;16.90;99.90
53752;DHT22;41095;53.090;6.692;2023-08-30T13:10:21;17.00;99.90
53752;DHT22;41095;53.090;6.692;2023-08-30T13:12:47;17.00;99.90
53752;DHT22;41095;53.090;6.692;2023-08-30T13:15:13;17.00;99.90
53752;DHT22;41095;53.090;6.692;2023-08-30T13:17:38;16.90;99.90
53752;DHT22;41095;53.090;6.692;2023-08-30T13:20:04;16.90;99.90
53752;DHT22;41095;53.090;6.692;2023-08-30T13:22:30;16.90;99.90
53752;DHT22;41095;53.090;6.692;2023-08-30T13:24:56;17.00;99.90
53752;DHT22;41095;53.090;6.692;2023-08-30T13:27:22;16.90;99.90
53752;DHT22;41095;53.090;6.692;2023-08-30T13:29:48;17.00;99.90
53752;DHT22;41095;53.090;6.692;2023-08-30T13:32:14;17.00;99.90
53752;DHT22;41095;53.090;6.692;2023-08-30T13:34:39;17.00;99.90
53752;DHT22;41095;53.090;6.692;2023-08-30T13:37:05;17.00;99.90
53752;DHT22;41095;53.090;6.692;2023-08-30T13:39:31;17.00;99.90
53752;DHT22;41095;53.090;6.692;2023-08-30T13:41:57;16.90;99.90
53752;DHT22;41095;53.090;6.692;2023-08-30T13:44:23;16.90;99.90
53752;DHT22;41095;53.090;6.692;2023-08-30T13:46:50;16.90;99.90
53752;DHT22;41095;53.090;6.692;2023-08-30T13:49:16;16.90;99.90
53752;DHT22;41095;53.090;6.692;2023-08-30T13:51:44;16.80;99.90
53752;DHT22;41095;53.090;6.692;2023-08-30T13:54:10;16.80;99.90
53752;DHT22;41095;53.090;6.692;2023-08-30T13:56:36;16.80;99.90
53752;DHT22;41095;53.090;6.692;2023-08-30T13:59:03;16.70;99.90
53752;DHT22;41095;53.090;6.692;2023-08-30T14:01:32;16.60;99.90
53752;DHT22;41095;53.090;6.692;2023-08-30T14:03:58;16.40;99.90
53752;DHT22;41095;53.090;6.692;2023-08-30T14:06:23;16.30;99.90
53752;DHT22;41095;53.090;6.692;2023-08-30T14:08:49;16.10;99.90
53752;DHT22;41095;53.090;6.692;2023-08-30T14:11:15;16.00;99.90
53752;DHT22;41095;53.090;6.692;2023-08-30T14:13:41;15.80;99.90
53752;DHT22;41095;53.090;6.692;2023-08-30T14:16:07;15.70;99.90
53752;DHT22;41095;53.090;6.692;2023-08-30T14:18:34;15.70;99.90
53752;DHT22;41095;53.090;6.692;2023-08-30T14:21:00;15.60;99.90
53752;DHT22;41095;53.090;6.692;2023-08-30T14:23:27;15.50;99.90
53752;DHT22;41095;53.090;6.692;2023-08-30T14:25:57;15.40;99.90
53752;DHT22;41095;53.090;6.692;2023-08-30T14:28:24;15.40;99.90
53752;DHT22;41095;53.090;6.692;2023-08-30T14:30:51;15.60;99.90
53752;DHT22;41095;53.090;6.692;2023-08-30T14:33:16;15.40;99.90
53752;DHT22;41095;53.090;6.692;2023-08-30T14:35:43;15.50;99.90
53752;DHT22;41095;53.090;6.692;2023-08-30T14:38:08;15.50;99.90
53752;DHT22;41095;53.090;6.692;2023-08-30T14:40:34;15.70;99.90
53752;DHT22;41095;53.090;6.692;2023-08-30T14:43:02;15.80;99.90
53752;DHT22;41095;53.090;6.692;2023-08-30T14:45:29;15.90;99.90
53752;DHT22;41095;53.090;6.692;2023-08-30T14:47:54;16.00;99.90
53752;DHT22;41095;53.090;6.692;2023-08-30T14:50:20;16.00;99.90
53752;DHT22;41095;53.090;6.692;2023-08-30T14:52:46;16.10;99.90
53752;DHT22;41095;53.090;6.692;2023-08-30T14:55:11;16.00;99.90
53752;DHT22;41095;53.090;6.692;2023-08-30T14:57:37;16.10;99.90
53752;DHT22;41095;53.090;6.692;2023-08-30T15:00:03;16.20;99.90
53752;DHT22;41095;53.090;6.692;2023-08-30T15:02:29;16.10;99.90
53752;DHT22;41095;53.090;6.692;2023-08-30T15:04:56;16.10;99.90
53752;DHT22;41095;53.090;6.692;2023-08-30T15:07:22;16.20;99.90
53752;DHT22;41095;53.090;6.692;2023-08-30T15:09:48;16.20;99.90
53752;DHT22;41095;53.090;6.692;2023-08-30T15:12:15;16.30;99.90
53752;DHT22;41095;53.090;6.692;2023-08-30T15:14:41;16.30;99.90
53752;DHT22;41095;53.090;6.692;2023-08-30T15:17:11;16.50;99.90
53752;DHT22;41095;53.090;6.692;2023-08-30T15:19:36;16.20;99.90
53752;DHT22;41095;53.090;6.692;2023-08-30T15:22:02;16.50;99.90
53752;DHT22;41095;53.090;6.692;2023-08-30T15:24:28;16.60;99.90
53752;DHT22;41095;53.090;6.692;2023-08-30T15:26:54;16.60;99.90
53752;DHT22;41095;53.090;6.692;2023-08-30T15:29:20;16.60;99.90
53752;DHT22;41095;53.090;6.692;2023-08-30T15:31:45;16.70;99.90
53752;DHT22;41095;53.090;6.692;2023-08-30T15:34:18;16.70;99.90